(°C)
15°
15°
14°
14°
14°
15°
15°
(°C)
15°
15°
15°
15°
15°
15°
16°
S
SSW
SSW
S
S
S
S
(km/h)
4-9
3-9
3-8
3-8
3-8
4-8
4-8
(mm)
0
0
0
0
0
0
0
(%)
2
1
1
1
0
0
0

Elevazione del sole

/ -37.6°
sun-icon
UV 9
05:46
19:44
Gibbosa calante (226°)
00:00
09:01

METAR per San Diego (KSAN)

Ora Condizioni Temperatura/
Punto di rugiada
Vento Visibilità Meteo Nuvole Pressione Cambiamento Grezzo
MVFR 15°C / 11.7°C 190º 5kt >10km - Broken Clouds 1300ft 1015 - KSAN 190651Z 19005KT 10SM BKN013 15/12 A2999 RMK AO2 SLP154 T01500117 $
MVFR 15°C / 11.7°C 180º 6kt >10km - Overcast 1300ft 1015 - KSAN 190551Z 18006KT 10SM OVC013 15/12 A2999 RMK AO2 SLP156 T01500117 10172 20150 50003 $
MVFR 16.7°C / 11.7°C 160º 5kt >10km - Overcast 1400ft 1015 - KSAN 190451Z 16005KT 10SM OVC014 17/12 A3000 RMK AO2 SLP159 T01670117
MVFR 15.6°C / 11.7°C variable 5kt >10km - Overcast 1400ft - KSAN 190419Z VRB05KT 10SM OVC014 16/12 A3000 RMK AO2 T01560117
MVFR 15.6°C / 11.7°C 180º 4kt >10km - Overcast 1500ft - KSAN 190403Z 18004KT 10SM OVC015 16/12 A3000 RMK AO2 T01560117
MVFR 15.6°C / 11.7°C 180º 7kt >10km - Broken Clouds 1400ft 1015 - KSAN 190351Z 18007KT 10SM BKN014 16/12 A3000 RMK AO2 SLP157 T01560117
MVFR 15.6°C / 11.7°C 190º 5kt >10km - Overcast 1400ft - KSAN 190339Z 19005KT 10SM OVC014 16/12 A3000 RMK AO2 T01560117
MVFR 15.6°C / 11.7°C 220º 6kt >10km - Overcast 1500ft 1015 - KSAN 190251Z 22006KT 10SM OVC015 16/12 A2999 RMK AO2 SLP154 T01560117 53002
MVFR 16.1°C / 11.7°C 230º 7kt >10km - Broken Clouds 1500ft 1015 - KSAN 190151Z 23007KT 10SM BKN015 16/12 A2998 RMK AO2 SLP151 T01610117
MVFR 17.2°C / 11.7°C 220º 8kt >10km - Broken Clouds 1600ft 1014 - KSAN 190051Z 22008KT 10SM BKN016 17/12 A2997 RMK AO2 SLP149 T01720117
MVFR 16.7°C / 11.7°C 200º 8kt >10km - Broken Clouds 2200ft 1015 - KSAN 182351Z 20008KT 10SM BKN022 17/12 A2998 RMK AO2 SLP152 BKN V SCT T01670117 10183 20167 58009
MVFR 17.2°C / 11.7°C 220º 8kt Gust 19kt >10km - Broken Clouds 2200ft 1015 - KSAN 182251Z 22008G19KT 10SM BKN022 17/12 A2999 RMK AO2 SLP155 BKN V SCT T01720117
MVFR 17.8°C / 11.7°C 210º 9kt >10km - Broken Clouds 2200ft 1015 - KSAN 182151Z 21009KT 10SM BKN022 18/12 A3000 RMK AO2 SLP159 T01780117
MVFR 17.8°C / 11.7°C 240º 8kt Gust 19kt >10km - Broken Clouds 2000ft 1016 - KSAN 182051Z 24008G19KT 10SM BKN020 18/12 A3001 RMK AO2 SLP161 T01780117 58006
MVFR 17.2°C / 11.7°C 240º 9kt Gust 17kt >10km - Broken Clouds 2000ft 1016 - KSAN 181951Z 24009G17KT 10SM BKN020 17/12 A3002 RMK AO2 SLP164 T01720117
MVFR 17.8°C / 12.2°C 230º 9kt >10km - Broken Clouds 1700ft - KSAN 181933Z 23009KT 10SM BKN017 18/12 A3002 RMK AO2 T01780122
VFR 17.8°C / 11.7°C 190º 8kt >10km - Scattered Clouds 2200ft 1016 - KSAN 181851Z 19008KT 10SM SCT022 18/12 A3003 RMK AO2 SLP167 T01780117
VFR 17.8°C / 11.7°C 210º variable 170º to 230º 8kt >10km - Scattered Clouds 2200ft - KSAN 181813Z 21008KT 170V230 10SM SCT022 18/12 A3003 RMK AO2 SCT V BKN T01780117
MVFR 17.8°C / 11.1°C 200º 6kt >10km - Broken Clouds 2200ft 1016 - KSAN 181751Z 20006KT 10SM BKN022 18/11 A3003 RMK AO2 SLP168 BKN V SCT T01780111 10178 20150 58000
MVFR 16.1°C / 11.1°C 200º 5kt >10km - Overcast 2100ft 1017 - KSAN 181651Z 20005KT 10SM OVC021 16/11 A3004 RMK AO2 SLP170 T01610111
MVFR 15.6°C / 11.7°C variable 5kt >10km - Overcast 1900ft 1016 - KSAN 181551Z VRB05KT 10SM OVC019 16/12 A3003 RMK AO2 SLP169 T01560117
MVFR 15.6°C / 11.7°C variable 5kt >10km - Overcast 1600ft 1016 - KSAN 181451Z VRB05KT 10SM OVC016 16/12 A3003 RMK AO2 SLP168 T01560117 53005
MVFR 15°C / 11.7°C variable 4kt >10km - Overcast 1600ft 1016 - KSAN 181351Z VRB04KT 10SM OVC016 15/12 A3002 RMK AO2 SLP164 T01500117
MVFR 15°C / 11.1°C 170º 6kt >10km - Overcast 1600ft 1016 - KSAN 181251Z 17006KT 10SM OVC016 15/11 A3001 RMK AO2 SLP161 T01500111

MVFR

15°C / 11.7°C

[Più]
Vento 190º 5kt
Visibilità >10km
Meteo -
Nuvole Broken Clouds 1300ft
Pressione 1015
Cambiamento -
Grezzo KSAN 190651Z 19005KT 10SM BKN013 15/12 A2999 RMK AO2 SLP154 T01500117 $

MVFR

15°C / 11.7°C

[Più]
Vento 180º 6kt
Visibilità >10km
Meteo -
Nuvole Overcast 1300ft
Pressione 1015
Cambiamento -
Grezzo KSAN 190551Z 18006KT 10SM OVC013 15/12 A2999 RMK AO2 SLP156 T01500117 10172 20150 50003 $

MVFR

16.7°C / 11.7°C

[Più]
Vento 160º 5kt
Visibilità >10km
Meteo -
Nuvole Overcast 1400ft
Pressione 1015
Cambiamento -
Grezzo KSAN 190451Z 16005KT 10SM OVC014 17/12 A3000 RMK AO2 SLP159 T01670117

MVFR

15.6°C / 11.7°C

[Più]
Vento variable 5kt
Visibilità >10km
Meteo -
Nuvole Overcast 1400ft
Pressione
Cambiamento -
Grezzo KSAN 190419Z VRB05KT 10SM OVC014 16/12 A3000 RMK AO2 T01560117

MVFR

15.6°C / 11.7°C

[Più]
Vento 180º 4kt
Visibilità >10km
Meteo -
Nuvole Overcast 1500ft
Pressione
Cambiamento -
Grezzo KSAN 190403Z 18004KT 10SM OVC015 16/12 A3000 RMK AO2 T01560117

MVFR

15.6°C / 11.7°C

[Più]
Vento 180º 7kt
Visibilità >10km
Meteo -
Nuvole Broken Clouds 1400ft
Pressione 1015
Cambiamento -
Grezzo KSAN 190351Z 18007KT 10SM BKN014 16/12 A3000 RMK AO2 SLP157 T01560117

MVFR

15.6°C / 11.7°C

[Più]
Vento 190º 5kt
Visibilità >10km
Meteo -
Nuvole Overcast 1400ft
Pressione
Cambiamento -
Grezzo KSAN 190339Z 19005KT 10SM OVC014 16/12 A3000 RMK AO2 T01560117

MVFR

15.6°C / 11.7°C

[Più]
Vento 220º 6kt
Visibilità >10km
Meteo -
Nuvole Overcast 1500ft
Pressione 1015
Cambiamento -
Grezzo KSAN 190251Z 22006KT 10SM OVC015 16/12 A2999 RMK AO2 SLP154 T01560117 53002

MVFR

16.1°C / 11.7°C

[Più]
Vento 230º 7kt
Visibilità >10km
Meteo -
Nuvole Broken Clouds 1500ft
Pressione 1015
Cambiamento -
Grezzo KSAN 190151Z 23007KT 10SM BKN015 16/12 A2998 RMK AO2 SLP151 T01610117

MVFR

17.2°C / 11.7°C

[Più]
Vento 220º 8kt
Visibilità >10km
Meteo -
Nuvole Broken Clouds 1600ft
Pressione 1014
Cambiamento -
Grezzo KSAN 190051Z 22008KT 10SM BKN016 17/12 A2997 RMK AO2 SLP149 T01720117

MVFR

16.7°C / 11.7°C

[Più]
Vento 200º 8kt
Visibilità >10km
Meteo -
Nuvole Broken Clouds 2200ft
Pressione 1015
Cambiamento -
Grezzo KSAN 182351Z 20008KT 10SM BKN022 17/12 A2998 RMK AO2 SLP152 BKN V SCT T01670117 10183 20167 58009

MVFR

17.2°C / 11.7°C

[Più]
Vento 220º 8kt Gust 19kt
Visibilità >10km
Meteo -
Nuvole Broken Clouds 2200ft
Pressione 1015
Cambiamento -
Grezzo KSAN 182251Z 22008G19KT 10SM BKN022 17/12 A2999 RMK AO2 SLP155 BKN V SCT T01720117

MVFR

17.8°C / 11.7°C

[Più]
Vento 210º 9kt
Visibilità >10km
Meteo -
Nuvole Broken Clouds 2200ft
Pressione 1015
Cambiamento -
Grezzo KSAN 182151Z 21009KT 10SM BKN022 18/12 A3000 RMK AO2 SLP159 T01780117

MVFR

17.8°C / 11.7°C

[Più]
Vento 240º 8kt Gust 19kt
Visibilità >10km
Meteo -
Nuvole Broken Clouds 2000ft
Pressione 1016
Cambiamento -
Grezzo KSAN 182051Z 24008G19KT 10SM BKN020 18/12 A3001 RMK AO2 SLP161 T01780117 58006

MVFR

17.2°C / 11.7°C

[Più]
Vento 240º 9kt Gust 17kt
Visibilità >10km
Meteo -
Nuvole Broken Clouds 2000ft
Pressione 1016
Cambiamento -
Grezzo KSAN 181951Z 24009G17KT 10SM BKN020 17/12 A3002 RMK AO2 SLP164 T01720117

MVFR

17.8°C / 12.2°C

[Più]
Vento 230º 9kt
Visibilità >10km
Meteo -
Nuvole Broken Clouds 1700ft
Pressione
Cambiamento -
Grezzo KSAN 181933Z 23009KT 10SM BKN017 18/12 A3002 RMK AO2 T01780122

VFR

17.8°C / 11.7°C

[Più]
Vento 190º 8kt
Visibilità >10km
Meteo -
Nuvole Scattered Clouds 2200ft
Pressione 1016
Cambiamento -
Grezzo KSAN 181851Z 19008KT 10SM SCT022 18/12 A3003 RMK AO2 SLP167 T01780117

VFR

17.8°C / 11.7°C

[Più]
Vento 210º variable 170º to 230º 8kt
Visibilità >10km
Meteo -
Nuvole Scattered Clouds 2200ft
Pressione
Cambiamento -
Grezzo KSAN 181813Z 21008KT 170V230 10SM SCT022 18/12 A3003 RMK AO2 SCT V BKN T01780117

MVFR

17.8°C / 11.1°C

[Più]
Vento 200º 6kt
Visibilità >10km
Meteo -
Nuvole Broken Clouds 2200ft
Pressione 1016
Cambiamento -
Grezzo KSAN 181751Z 20006KT 10SM BKN022 18/11 A3003 RMK AO2 SLP168 BKN V SCT T01780111 10178 20150 58000

MVFR

16.1°C / 11.1°C

[Più]
Vento 200º 5kt
Visibilità >10km
Meteo -
Nuvole Overcast 2100ft
Pressione 1017
Cambiamento -
Grezzo KSAN 181651Z 20005KT 10SM OVC021 16/11 A3004 RMK AO2 SLP170 T01610111

MVFR

15.6°C / 11.7°C

[Più]
Vento variable 5kt
Visibilità >10km
Meteo -
Nuvole Overcast 1900ft
Pressione 1016
Cambiamento -
Grezzo KSAN 181551Z VRB05KT 10SM OVC019 16/12 A3003 RMK AO2 SLP169 T01560117

MVFR

15.6°C / 11.7°C

[Più]
Vento variable 5kt
Visibilità >10km
Meteo -
Nuvole Overcast 1600ft
Pressione 1016
Cambiamento -
Grezzo KSAN 181451Z VRB05KT 10SM OVC016 16/12 A3003 RMK AO2 SLP168 T01560117 53005

MVFR

15°C / 11.7°C

[Più]
Vento variable 4kt
Visibilità >10km
Meteo -
Nuvole Overcast 1600ft
Pressione 1016
Cambiamento -
Grezzo KSAN 181351Z VRB04KT 10SM OVC016 15/12 A3002 RMK AO2 SLP164 T01500117

MVFR

15°C / 11.1°C

[Più]
Vento 170º 6kt
Visibilità >10km
Meteo -
Nuvole Overcast 1600ft
Pressione 1016
Cambiamento -
Grezzo KSAN 181251Z 17006KT 10SM OVC016 15/11 A3001 RMK AO2 SLP161 T01500111

TAF per San Diego (KSAN)

From till


From till Wind 190º 5kt. Visibility 10km or more. Overcast 1200ft.
From till Wind 190º 9kt. Visibility 10km or more. Broken Clouds 1500ft.
Temporarly from till Scattered Clouds 1500ft.
From till Wind 190º 5kt. Visibility 10km or more. Broken Clouds 2000ft.
From till Wind 190º 8kt. Visibility 10km or more. Broken Clouds 2800ft.

Grezzo: KSAN 190520Z 1906/2012 19005KT P6SM OVC012 FM191800 19009KT P6SM BKN015 TEMPO 1920/1924 SCT015 FM200300 19005KT P6SM BKN020 FM200800 19008KT P6SM BKN028

Radar e nowcasting per San Diego

Pioviggine
Lieve
Moderato
Forte
Molto forte
Grandine

Il segnaposto è situato a San Diego. Questa animazione mostra il radar delle precipitazioni per l'ultima ora, nonché una previsione 1h. Una pioviggine o una leggera caduta di neve potrebbero essere invisibili per il radar. L'intensità delle precipitazioni è codificata a colori, dal blu chiaro all'arancione.

Immagine satellitare per San Diego, Stati Uniti

Il segnaposto è situato a San Diego. [Più]

L'immagine satellitare in tempo reale combina la luce visibile durante il giorno con la radiazione infrarossa durante la notte. Di notte l'immagine non è scura poiché i raggi infrarossi possono rilevare differenze di temperatura. Purtroppo, le nuvole basse e la nebbia sono difficili da distinguere dalla temperatura del suolo e possono pertanto essere quasi invisibili durante la notte. Le immagini satellitari Meteosat per l'Europa vengono aggiornate in tempo reale ogni 5 minuti. Le immagini GOES-16 / GOES-17 (Nord e Sud America) e Himawari (Asia) vengono aggiornate ogni 10 minuti.

Tornare su